createdAt,value
2023-03-23T15:59:03.044Z,91135.47
2023-03-23T16:01:29.204Z,91136.50
2023-03-23T16:03:55.340Z,91143.53
2023-03-23T16:06:23.301Z,91140.97
2023-03-23T16:08:54.802Z,91142.28
2023-03-23T16:11:21.437Z,91154.19
2023-03-23T16:13:47.535Z,91154.53
2023-03-23T16:16:13.683Z,91160.72
2023-03-23T16:18:39.824Z,91158.09
2023-03-23T16:21:05.930Z,91171.13
2023-03-23T16:23:32.044Z,91178.88
2023-03-23T16:25:58.176Z,91167.53
2023-03-23T16:28:24.292Z,91180.53
2023-03-23T16:30:50.396Z,91185.53
2023-03-23T16:33:16.605Z,91183.47
2023-03-23T16:35:42.887Z,91191.09
2023-03-23T16:38:09.398Z,91203.22
2023-03-23T16:40:35.532Z,91208.63
2023-03-23T16:43:01.610Z,91201.31
2023-03-23T16:45:34.762Z,91201.78
2023-03-23T16:48:00.890Z,91206.31
2023-03-23T16:50:27.005Z,91206.44
2023-03-23T16:52:53.107Z,91218.44
2023-03-23T16:55:19.200Z,91220.13
2023-03-23T16:57:45.298Z,91222.22
2023-03-23T17:00:11.386Z,91221.69
2023-03-23T17:02:37.566Z,91232.13
2023-03-23T17:05:03.708Z,91227.47
2023-03-23T17:07:29.824Z,91228.94
2023-03-23T17:09:55.922Z,91229.94
2023-03-23T17:12:22.021Z,91238.44
2023-03-23T17:14:48.119Z,91237.44
2023-03-23T17:17:14.201Z,91242.88
2023-03-23T17:19:40.313Z,91240.81
2023-03-23T17:22:06.428Z,91242.44
2023-03-23T17:24:32.522Z,91243.88
2023-03-23T17:26:58.639Z,91239.50
2023-03-23T17:29:24.750Z,91242.44
2023-03-23T17:31:50.871Z,91244.63
2023-03-23T17:34:18.755Z,91249.75
2023-03-23T17:36:45.512Z,91239.88
2023-03-23T17:39:11.591Z,91241.63
2023-03-23T17:41:37.689Z,91250.19
2023-03-23T17:44:03.797Z,91252.91
2023-03-23T17:46:29.925Z,91249.19
2023-03-23T17:48:56.075Z,91256.31
2023-03-23T17:51:22.162Z,91253.13
2023-03-23T17:53:48.267Z,91258.00
2023-03-23T17:56:14.343Z,91247.13
2023-03-23T17:58:40.444Z,91250.84
2023-03-23T18:01:06.598Z,91250.38
2023-03-23T18:03:32.730Z,91249.69
2023-03-23T18:05:58.860Z,91247.09
2023-03-23T18:08:24.986Z,91247.25
2023-03-23T18:10:51.064Z,91253.00
2023-03-23T18:13:17.153Z,91248.34
2023-03-23T18:15:44.158Z,91240.47
2023-03-23T18:18:12.649Z,91241.75
2023-03-23T18:20:38.743Z,91249.69
2023-03-23T18:23:04.848Z,91240.56
2023-03-23T18:25:30.961Z,91241.69
2023-03-23T18:27:57.040Z,91241.63
2023-03-23T18:30:30.864Z,91238.59
2023-03-23T18:32:56.989Z,91234.91
2023-03-23T18:35:23.112Z,91234.47
2023-03-23T18:37:49.221Z,91231.41
2023-03-23T18:40:15.318Z,91235.22
2023-03-23T18:42:41.419Z,91237.63
2023-03-23T18:45:07.524Z,91235.31
2023-03-23T18:47:33.664Z,91232.91
2023-03-23T18:49:59.787Z,91231.13
2023-03-23T18:52:25.885Z,91227.13
2023-03-23T18:54:51.984Z,91238.50
2023-03-23T18:57:18.088Z,91232.41
2023-03-23T18:59:44.207Z,91234.41
2023-03-23T19:02:10.352Z,91232.91
2023-03-23T19:04:36.468Z,91238.31
2023-03-23T19:07:02.550Z,91237.63
2023-03-23T19:09:28.642Z,91238.88
2023-03-23T19:11:54.743Z,91239.00
2023-03-23T19:14:20.875Z,91240.00
2023-03-23T19:16:46.981Z,91240.25
2023-03-23T19:19:13.075Z,91241.78
2023-03-23T19:21:39.796Z,91244.75
2023-03-23T19:24:06.243Z,91234.09
2023-03-23T19:26:34.797Z,91244.75
2023-03-23T19:29:25.495Z,91231.00
2023-03-23T19:31:49.055Z,91229.41
2023-03-23T19:34:15.574Z,91215.81
2023-03-23T19:36:41.770Z,91220.22
2023-03-23T19:39:07.869Z,91228.00
2023-03-23T19:41:33.965Z,91227.13
2023-03-23T19:44:00.110Z,91231.00
2023-03-23T19:46:29.009Z,91228.03
2023-03-23T19:48:56.483Z,91218.31
2023-03-23T19:51:22.624Z,91220.66
2023-03-23T19:53:48.727Z,91219.72
2023-03-23T19:56:14.843Z,91229.69
2023-03-23T19:58:40.940Z,91224.03
2023-03-23T20:01:07.031Z,91227.31
2023-03-23T20:03:33.147Z,91232.25
2023-03-23T20:05:59.249Z,91230.97
2023-03-23T20:08:25.416Z,91236.78
2023-03-23T20:10:51.543Z,91230.28
2023-03-23T20:13:17.972Z,91236.00
2023-03-23T20:15:44.323Z,91233.94
2023-03-23T20:18:10.777Z,91223.81
2023-03-23T20:20:36.970Z,91225.97
2023-03-23T20:23:03.061Z,91233.09
2023-03-23T20:25:29.538Z,91227.88
2023-03-23T20:27:55.719Z,91230.78
2023-03-23T20:30:21.806Z,91226.13
2023-03-23T20:32:47.902Z,91225.03
2023-03-23T20:35:14.003Z,91222.91
2023-03-23T20:37:40.118Z,91228.91
2023-03-23T20:40:06.244Z,91225.13
2023-03-23T20:42:32.343Z,91224.94
2023-03-23T20:44:58.424Z,91237.81
2023-03-23T20:47:24.536Z,91227.06
2023-03-23T20:49:53.016Z,91225.31
2023-03-23T20:52:19.722Z,91223.28
2023-03-23T20:54:45.835Z,91226.88
2023-03-23T20:57:12.174Z,91227.28
2023-03-23T20:59:38.349Z,91232.44
2023-03-23T21:02:04.452Z,91227.50
2023-03-23T21:04:30.545Z,91233.38
2023-03-23T21:06:56.640Z,91229.88
2023-03-23T21:09:22.746Z,91226.59
2023-03-23T21:11:48.844Z,91224.22
2023-03-23T21:14:14.974Z,91223.66
2023-03-23T21:16:41.076Z,91224.13
2023-03-23T21:19:07.184Z,91224.44
2023-03-23T21:21:33.402Z,91220.75
2023-03-23T21:23:59.494Z,91218.78
2023-03-23T21:26:25.574Z,91220.00
2023-03-23T21:28:51.684Z,91211.03
2023-03-23T21:31:17.788Z,91221.38
2023-03-23T21:33:43.874Z,91212.09
2023-03-23T21:36:10.021Z,91210.47
2023-03-23T21:38:36.136Z,91208.56
2023-03-23T21:41:02.234Z,91207.84
2023-03-23T21:43:28.317Z,91197.16
2023-03-23T21:45:54.405Z,91203.06
2023-03-23T21:48:20.532Z,91194.03
2023-03-23T21:50:46.804Z,91184.91
2023-03-23T21:53:13.075Z,91184.28
2023-03-23T21:55:39.205Z,91186.78
2023-03-23T21:58:05.327Z,91184.53
2023-03-23T22:00:31.419Z,91179.22
2023-03-23T22:02:57.565Z,91176.91
2023-03-23T22:05:23.678Z,91167.84
2023-03-23T22:07:49.787Z,91176.94
2023-03-23T22:10:15.858Z,91178.34
2023-03-23T22:12:41.927Z,91183.44
2023-03-23T22:15:08.012Z,91185.44
2023-03-23T22:17:34.127Z,91185.41
2023-03-23T22:20:00.227Z,91190.00
2023-03-23T22:22:26.332Z,91192.66
2023-03-23T22:24:52.435Z,91192.66
2023-03-23T22:27:18.546Z,91207.88
2023-03-23T22:29:44.642Z,91217.63
2023-03-23T22:32:10.739Z,91216.25
2023-03-23T22:34:36.847Z,91221.72
2023-03-23T22:37:02.977Z,91221.81
2023-03-23T22:39:29.089Z,91216.22
2023-03-23T22:41:55.187Z,91230.50
2023-03-23T22:44:21.293Z,91237.53
2023-03-23T22:46:47.373Z,91244.66
2023-03-23T22:49:13.460Z,91240.91
2023-03-23T22:51:39.569Z,91237.44
2023-03-23T22:54:05.693Z,91252.31
2023-03-23T22:56:31.811Z,91248.00
2023-03-23T22:58:57.923Z,91250.59
2023-03-23T23:01:24.051Z,91240.66
2023-03-23T23:03:50.241Z,91240.84
2023-03-23T23:06:16.400Z,91239.28
2023-03-23T23:08:42.488Z,91237.09
2023-03-23T23:11:08.564Z,91231.19
2023-03-23T23:13:34.646Z,91231.81
2023-03-23T23:16:00.734Z,91219.84
2023-03-23T23:18:26.830Z,91214.63
2023-03-23T23:20:52.912Z,91219.59
2023-03-23T23:23:18.992Z,91213.38
2023-03-23T23:25:45.108Z,91212.50
2023-03-23T23:28:11.178Z,91215.63
2023-03-23T23:30:37.290Z,91205.75
2023-03-23T23:33:03.440Z,91208.88
2023-03-23T23:35:29.586Z,91202.91
2023-03-23T23:37:55.719Z,91193.63
2023-03-23T23:40:21.821Z,91187.78
2023-03-23T23:42:47.940Z,91190.16
2023-03-23T23:45:14.014Z,91189.31
2023-03-23T23:47:40.251Z,91181.59
2023-03-23T23:50:06.436Z,91176.22
2023-03-23T23:52:32.531Z,91174.34
2023-03-23T23:54:58.622Z,91170.38
2023-03-23T23:57:24.743Z,91164.28
2023-03-23T23:59:50.846Z,91164.22
